Time;durP1;ratioP1;P1;durP2;ratioP2;P2;SDS_P1;SDS_P2;PMS_P1;PMS_P2;Temp;Humidity;BMP_temperature;BMP_pressure;BME280_temperature;BME280_humidity;BME280_pressure;Samples;Min_cycle;Max_cycle;Signal;HPM_P1;HPM_P2
2021/07/03 00:02:29;;;;;;;20.77;13.40;;;;;;;16.23;78.51;100074.72;2120041;82;21475;-66
2021/07/03 00:05:31;;;;;;;20.02;11.40;;;;;;;16.24;78.50;100074.20;2117196;82;20981;-69
2021/07/03 00:08:32;;;;;;;24.45;12.37;;;;;;;16.23;78.54;100075.24;2118975;82;21376;-66
2021/07/03 00:11:35;;;;;;;17.40;11.48;;;;;;;16.23;78.52;100073.91;2120895;82;21040;-67
2021/07/03 00:14:40;;;;;;;16.95;11.43;;;;;;;16.20;78.56;100074.31;2117908;82;21381;-73
2021/07/03 00:17:41;;;;;;;19.25;11.78;;;;;;;16.17;78.56;100071.53;2121313;82;21003;-66
2021/07/03 00:20:46;;;;;;;19.98;12.07;;;;;;;16.14;78.71;100070.08;2119855;82;21001;-66
2021/07/03 00:23:47;;;;;;;18.73;12.90;;;;;;;16.09;78.78;100071.20;2117935;82;21003;-67
2021/07/03 00:26:49;;;;;;;18.27;12.50;;;;;;;16.05;78.58;100068.64;2112999;82;21546;-66
2021/07/03 00:29:51;;;;;;;24.72;12.10;;;;;;;15.99;78.66;100074.78;2117918;82;22685;-66
2021/07/03 00:32:53;;;;;;;23.55;13.03;;;;;;;15.90;78.81;100074.67;2094043;83;21076;-68
2021/07/03 00:35:55;;;;;;;17.98;12.30;;;;;;;15.86;78.80;100074.26;2094620;83;21098;-68
2021/07/03 00:38:56;;;;;;;17.52;12.98;;;;;;;15.82;78.84;100077.53;2093139;83;21112;-71
2021/07/03 00:42:01;;;;;;;15.18;12.23;;;;;;;15.75;79.00;100069.49;2090948;83;21507;-67
2021/07/03 00:45:03;;;;;;;18.52;12.40;;;;;;;15.72;79.15;100073.09;2089388;83;21028;-67
2021/07/03 00:48:06;;;;;;;16.48;13.18;;;;;;;15.68;79.10;100081.52;2102526;83;21072;-66
2021/07/03 00:51:07;;;;;;;17.73;13.00;;;;;;;15.66;79.13;100086.73;2096804;83;21021;-72
2021/07/03 00:54:11;;;;;;;15.00;12.18;;;;;;;15.64;79.14;100084.23;2097194;83;21675;-67
2021/07/03 00:57:13;;;;;;;21.02;14.13;;;;;;;15.63;79.23;100087.95;2100886;83;21472;-67
2021/07/03 01:00:17;;;;;;;14.90;11.90;;;;;;;15.60;79.26;100097.71;2097102;83;21076;-66
2021/07/03 01:03:19;;;;;;;17.50;13.38;;;;;;;15.59;79.23;100091.21;2104646;83;20983;-66
2021/07/03 01:06:25;;;;;;;21.57;12.53;;;;;;;15.58;79.22;100090.39;2095609;83;21060;-66
2021/07/03 01:09:28;;;;;;;24.82;12.28;;;;;;;15.53;79.30;100090.16;2099305;83;21007;-67
2021/07/03 01:12:30;;;;;;;17.40;12.80;;;;;;;15.51;79.32;100092.20;2099624;83;21014;-67
2021/07/03 01:15:32;;;;;;;20.88;13.15;;;;;;;15.50;79.39;100095.09;2105981;83;21149;-66
2021/07/03 01:18:34;;;;;;;16.17;12.63;;;;;;;15.47;79.32;100097.65;2116249;82;21085;-72
2021/07/03 01:21:37;;;;;;;17.57;13.25;;;;;;;15.42;79.41;100094.74;2090933;82;21854;-66
2021/07/03 01:24:41;;;;;;;18.27;13.40;;;;;;;15.36;79.42;100092.87;2114443;82;20990;-66
2021/07/03 01:27:45;;;;;;;19.02;13.53;;;;;;;15.32;79.44;100093.78;2113522;82;21046;-67
2021/07/03 01:30:47;;;;;;;19.42;12.50;;;;;;;15.30;79.40;100090.99;2112415;82;21052;-66
2021/07/03 01:33:50;;;;;;;20.23;12.80;;;;;;;15.25;79.58;100095.58;2109656;82;21070;-67
2021/07/03 01:36:56;;;;;;;22.37;12.95;;;;;;;15.20;79.56;100098.87;2097993;83;21105;-66
2021/07/03 01:39:58;;;;;;;19.95;13.13;;;;;;;15.17;79.59;100091.22;2095504;82;20995;-67
2021/07/03 01:43:00;;;;;;;17.57;13.40;;;;;;;15.16;79.65;100097.59;2114351;82;21105;-66
2021/07/03 01:46:03;;;;;;;22.52;12.88;;;;;;;15.15;79.71;100097.81;2115295;82;21086;-67
2021/07/03 01:49:08;;;;;;;17.35;13.80;;;;;;;15.09;79.67;100096.75;2116204;82;21029;-66
2021/07/03 01:52:17;;;;;;;21.97;13.55;;;;;;;15.06;79.77;100097.11;2119997;82;21428;-67
2021/07/03 01:55:19;;;;;;;16.52;13.60;;;;;;;15.04;79.77;100096.51;2118767;82;21589;-67
2021/07/03 01:58:28;;;;;;;23.57;15.05;;;;;;;15.02;79.96;100094.53;2094186;83;21001;-70
2021/07/03 02:01:44;;;;;;;17.42;13.38;;;;;;;15.00;79.88;100096.56;2088510;83;21084;-67
2021/07/03 02:04:43;;;;;;;18.05;13.40;;;;;;;14.98;79.76;100105.31;2089132;83;21072;-66
2021/07/03 02:07:46;;;;;;;19.27;14.07;;;;;;;14.94;79.75;100100.84;2095975;83;20977;-71
2021/07/03 02:10:50;;;;;;;19.23;14.00;;;;;;;14.90;79.71;100102.79;2090578;83;21076;-67
2021/07/03 02:13:53;;;;;;;20.68;14.30;;;;;;;14.89;79.92;100105.95;2092650;83;21051;-69
2021/07/03 02:16:58;;;;;;;21.15;13.83;;;;;;;14.87;79.85;100107.19;2093035;83;21049;-67
2021/07/03 02:20:00;;;;;;;21.25;13.83;;;;;;;14.86;79.90;100110.34;2089970;83;21010;-66
2021/07/03 02:23:04;;;;;;;24.18;14.43;;;;;;;14.88;79.89;100108.31;2090566;83;21029;-67
2021/07/03 02:26:06;;;;;;;21.40;13.80;;;;;;;14.85;79.86;100114.05;2092093;83;21482;-66
2021/07/03 02:29:09;;;;;;;20.23;13.93;;;;;;;14.83;79.98;100105.91;2092422;83;21143;-67
2021/07/03 02:32:12;;;;;;;16.65;13.38;;;;;;;14.80;80.07;100107.94;2090390;83;21068;-66
2021/07/03 02:35:17;;;;;;;22.60;15.13;;;;;;;14.79;80.24;100102.81;2091581;83;21086;-67
2021/07/03 02:38:22;;;;;;;20.55;14.40;;;;;;;14.75;80.14;100099.71;2091367;83;21029;-66
2021/07/03 02:41:25;;;;;;;22.02;14.30;;;;;;;14.75;80.18;100101.05;2094840;83;22124;-67
2021/07/03 02:44:27;;;;;;;21.55;15.10;;;;;;;14.75;80.27;100106.39;2094667;83;22315;-66
2021/07/03 02:47:29;;;;;;;26.17;15.53;;;;;;;14.74;80.34;100099.89;2035724;86;21076;-66
2021/07/03 02:50:31;;;;;;;26.75;14.47;;;;;;;14.72;80.30;100094.73;2080837;84;21127;-70
2021/07/03 02:53:34;;;;;;;25.30;14.78;;;;;;;14.74;80.39;100096.70;2067721;84;21058;-66
2021/07/03 02:56:36;;;;;;;20.75;14.70;;;;;;;14.75;80.41;100102.38;2086192;84;21549;-67
2021/07/03 02:59:38;;;;;;;20.88;14.47;;;;;;;14.76;80.44;100095.19;2084626;84;21047;-67
2021/07/03 03:02:41;;;;;;;22.13;14.93;;;;;;;14.73;80.46;100095.06;2084523;84;21019;-66
2021/07/03 03:05:44;;;;;;;24.43;14.90;;;;;;;14.74;80.51;100103.38;2082269;84;21071;-68
2021/07/03 03:08:46;;;;;;;23.98;15.63;;;;;;;14.72;80.51;100106.75;2083365;84;21058;-66
2021/07/03 03:11:49;;;;;;;27.80;16.60;;;;;;;14.73;80.57;100100.92;2082386;84;21003;-66
2021/07/03 03:14:52;;;;;;;24.90;15.05;;;;;;;14.72;80.61;100100.59;2083937;84;20968;-67
2021/07/03 03:17:53;;;;;;;20.27;15.25;;;;;;;14.73;80.66;100107.09;2082091;84;21022;-67
2021/07/03 03:20:55;;;;;;;20.68;14.87;;;;;;;14.73;80.67;100102.26;2079985;84;21694;-71
2021/07/03 03:23:57;;;;;;;19.62;14.10;;;;;;;14.72;80.68;100097.41;2082964;84;21066;-66
2021/07/03 03:26:59;;;;;;;19.73;15.45;;;;;;;14.72;80.71;100100.07;2084639;84;21002;-67
2021/07/03 03:30:02;;;;;;;22.90;15.03;;;;;;;14.74;80.78;100099.89;2084472;83;21081;-67
2021/07/03 03:33:04;;;;;;;23.62;14.73;;;;;;;14.78;80.83;100097.14;2083417;83;21062;-67
2021/07/03 03:36:06;;;;;;;18.87;15.23;;;;;;;14.80;80.93;100092.43;2087274;84;21550;-68
2021/07/03 03:39:09;;;;;;;20.80;15.15;;;;;;;14.82;80.94;100097.59;2085674;83;21022;-67
2021/07/03 03:42:11;;;;;;;21.50;15.55;;;;;;;14.92;81.19;100094.05;2077737;84;21015;-66
2021/07/03 03:45:15;;;;;;;22.95;15.65;;;;;;;15.13;81.22;100085.14;2080431;84;21600;-67
2021/07/03 03:48:17;;;;;;;19.55;14.10;;;;;;;15.38;81.14;100087.64;2099044;83;21012;-66
2021/07/03 03:51:21;;;;;;;20.92;15.03;;;;;;;15.66;80.86;100086.73;2104674;83;21051;-67
2021/07/03 03:54:23;;;;;;;17.48;14.83;;;;;;;15.82;80.51;100084.22;2070289;84;21528;-66
2021/07/03 03:57:29;;;;;;;19.20;14.18;;;;;;;15.97;80.13;100080.87;2101379;83;21068;-67
2021/07/03 04:00:30;;;;;;;20.43;15.32;;;;;;;16.09;80.02;100079.75;2101569;83;21547;-66
2021/07/03 04:03:37;;;;;;;22.60;15.25;;;;;;;16.17;79.63;100088.93;2099785;83;21133;-65
2021/07/03 04:06:40;;;;;;;21.68;16.50;;;;;;;16.20;79.39;100082.34;2095232;82;21058;-68
2021/07/03 04:09:42;;;;;;;17.95;14.40;;;;;;;16.19;79.37;100081.53;2099958;83;21160;-71
2021/07/03 04:12:45;;;;;;;20.25;14.43;;;;;;;16.24;79.22;100082.23;2096921;83;21026;-66
2021/07/03 04:15:47;;;;;;;24.63;15.75;;;;;;;16.30;79.17;100079.58;2101440;83;21341;-67
2021/07/03 04:18:49;;;;;;;21.70;15.10;;;;;;;16.32;79.01;100076.69;2097356;83;21041;-71
2021/07/03 04:21:50;;;;;;;22.17;14.75;;;;;;;16.37;78.99;100080.91;2096763;83;20992;-68
2021/07/03 04:24:52;;;;;;;25.90;14.05;;;;;;;16.52;78.99;100083.38;2098874;83;21019;-68
2021/07/03 04:27:55;;;;;;;18.87;14.43;;;;;;;16.68;78.71;100082.14;2100946;83;21052;-70
2021/07/03 04:30:57;;;;;;;23.27;14.45;;;;;;;16.84;78.63;100081.75;2101236;83;21441;-68
2021/07/03 04:33:59;;;;;;;22.05;14.47;;;;;;;17.00;78.43;100082.62;2100073;83;21024;-68
2021/07/03 04:37:00;;;;;;;26.23;14.85;;;;;;;17.23;78.10;100092.05;2102432;83;21089;-66
2021/07/03 04:40:05;;;;;;;24.67;14.87;;;;;;;17.54;78.09;100087.33;2097327;83;21018;-66
2021/07/03 04:43:10;;;;;;;17.02;12.53;;;;;;;17.79;77.25;100092.78;2098271;83;21017;-68
2021/07/03 04:46:12;;;;;;;26.93;14.10;;;;;;;17.98;76.63;100086.19;2102415;83;21042;-66
2021/07/03 04:49:15;;;;;;;16.62;13.50;;;;;;;18.02;76.39;100085.56;2097141;83;21922;-66
2021/07/03 04:52:21;;;;;;;21.52;13.43;;;;;;;17.98;75.88;100087.01;2103635;84;21074;-69
2021/07/03 04:55:21;;;;;;;20.68;13.70;;;;;;;18.00;76.08;100086.28;2069977;84;21051;-67
2021/07/03 04:58:23;;;;;;;16.45;13.30;;;;;;;18.17;75.61;100092.48;2104967;83;21552;-66
2021/07/03 05:01:25;;;;;;;20.60;12.63;;;;;;;18.28;75.77;100089.91;2094671;83;21080;-67
2021/07/03 05:04:26;;;;;;;18.98;13.08;;;;;;;18.46;74.92;100089.67;2099666;83;20985;-68
2021/07/03 05:07:30;;;;;;;17.07;12.82;;;;;;;18.43;74.44;100090.11;2096787;83;21052;-67
2021/07/03 05:10:33;;;;;;;20.62;12.85;;;;;;;18.51;74.43;100092.53;2104292;83;21031;-66
2021/07/03 05:13:37;;;;;;;16.17;12.73;;;;;;;18.66;74.04;100089.50;2105184;83;21060;-67
2021/07/03 05:16:38;;;;;;;14.90;11.93;;;;;;;18.77;73.56;100094.19;2110897;82;21050;-69
2021/07/03 05:19:40;;;;;;;17.60;12.95;;;;;;;18.79;73.42;100093.45;2113689;82;21056;-71
2021/07/03 05:22:41;;;;;;;18.50;13.08;;;;;;;18.84;73.09;100096.80;2099523;83;21062;-69
2021/07/03 05:25:44;;;;;;;17.77;12.78;;;;;;;18.95;72.69;100097.42;2115996;82;21038;-70
2021/07/03 05:28:49;;;;;;;22.87;13.30;;;;;;;19.11;72.25;100092.80;2112595;82;21623;-70
2021/07/03 05:31:51;;;;;;;18.98;12.47;;;;;;;19.18;72.03;100088.19;2116664;82;21081;-70
2021/07/03 05:34:52;;;;;;;16.45;12.35;;;;;;;19.35;72.02;100087.59;2109470;82;21025;-69
2021/07/03 05:37:54;;;;;;;16.17;12.20;;;;;;;19.56;70.88;100084.42;2115934;82;21013;-71
2021/07/03 05:41:00;;;;;;;16.48;12.45;;;;;;;19.57;70.76;100094.16;2116694;82;21034;-69
2021/07/03 05:43:59;;;;;;;17.02;13.30;;;;;;;19.47;70.62;100093.33;2110528;82;21073;-77
2021/07/03 05:47:01;;;;;;;19.45;13.18;;;;;;;19.59;70.37;100096.60;2118320;82;21499;-68
2021/07/03 05:50:04;;;;;;;15.98;12.03;;;;;;;19.57;70.19;100102.23;2113775;82;21015;-68
2021/07/03 05:53:06;;;;;;;18.82;12.23;;;;;;;19.46;70.05;100095.73;2119421;82;21065;-67
2021/07/03 05:56:07;;;;;;;20.32;12.47;;;;;;;19.38;70.11;100104.63;2114072;82;21004;-67
2021/07/03 05:59:09;;;;;;;15.80;12.68;;;;;;;19.23;69.78;100103.14;2118685;82;20963;-70
2021/07/03 06:02:10;;;;;;;17.00;12.43;;;;;;;19.17;69.90;100105.88;2112583;82;21072;-66
2021/07/03 06:05:14;;;;;;;16.27;12.43;;;;;;;19.36;70.13;100106.72;2117918;82;21658;-67
2021/07/03 06:08:15;;;;;;;21.05;12.15;;;;;;;19.52;69.80;100102.08;2118844;82;21054;-66
2021/07/03 06:11:18;;;;;;;19.25;13.15;;;;;;;19.52;69.79;100110.16;2119092;82;21113;-68
2021/07/03 06:14:20;;;;;;;14.68;13.10;;;;;;;19.39;69.77;100106.27;2118918;82;21091;-68
2021/07/03 06:17:22;;;;;;;19.77;13.15;;;;;;;19.25;69.49;100105.06;2117816;82;21098;-67
2021/07/03 06:20:23;;;;;;;18.25;12.88;;;;;;;19.03;69.53;100111.92;2115960;82;20993;-68
2021/07/03 06:23:27;;;;;;;18.82;12.95;;;;;;;18.86;69.92;100110.33;2117454;82;21170;-74
2021/07/03 06:26:30;;;;;;;19.45;13.45;;;;;;;18.84;70.23;100112.93;2120969;82;21117;-70
2021/07/03 06:29:31;;;;;;;21.70;13.03;;;;;;;19.04;70.44;100113.59;2116406;82;21067;-67
2021/07/03 06:32:33;;;;;;;20.08;12.82;;;;;;;19.33;70.14;100109.86;2115284;82;20972;-67
2021/07/03 06:35:35;;;;;;;17.75;12.73;;;;;;;19.41;69.62;100105.52;2121424;82;21189;-68
2021/07/03 06:38:37;;;;;;;15.60;13.45;;;;;;;19.40;69.46;100109.24;2121026;82;21516;-70
2021/07/03 06:41:38;;;;;;;18.23;12.93;;;;;;;19.37;69.65;100109.20;2114540;82;21368;-67
2021/07/03 06:44:44;;;;;;;23.80;12.53;;;;;;;19.51;70.03;100112.52;2116756;82;21114;-67
2021/07/03 06:47:46;;;;;;;18.20;12.90;;;;;;;19.57;69.49;100113.49;2117810;82;21044;-71
2021/07/03 06:50:49;;;;;;;15.32;12.73;;;;;;;19.72;70.14;100106.42;2114992;82;21552;-68
2021/07/03 06:54:11;;;;;;;20.35;12.93;;;;;;;19.85;69.24;100104.87;2092326;83;21063;-70
2021/07/03 06:57:13;;;;;;;23.87;13.35;;;;;;;19.96;68.90;100102.76;2084420;84;21006;-67
2021/07/03 07:00:19;;;;;;;23.57;13.38;;;;;;;20.00;68.77;100109.34;2081889;84;21018;-70
2021/07/03 07:03:20;;;;;;;23.80;13.75;;;;;;;20.06;69.12;100109.77;2064359;84;21078;-70
2021/07/03 07:06:24;;;;;;;17.77;13.53;;;;;;;20.18;68.48;100104.41;2081982;84;21029;-67
2021/07/03 07:09:26;;;;;;;17.92;12.70;;;;;;;20.33;67.84;100097.27;2084760;82;21119;-68
2021/07/03 07:12:27;;;;;;;15.93;12.68;;;;;;;20.47;68.37;100097.84;2082644;84;21108;-67
2021/07/03 07:15:29;;;;;;;18.45;12.98;;;;;;;20.84;67.72;100094.47;2082465;84;21078;-67
2021/07/03 07:18:31;;;;;;;15.13;12.45;;;;;;;21.11;67.37;100099.36;2083584;84;20986;-66
2021/07/03 07:21:33;;;;;;;15.00;13.03;;;;;;;21.55;66.90;100106.53;2082942;84;20994;-67
2021/07/03 07:24:37;;;;;;;14.45;12.20;;;;;;;21.67;66.15;100110.01;2085090;84;21545;-69
2021/07/03 07:27:38;;;;;;;19.48;12.78;;;;;;;21.80;66.14;100107.03;2081159;84;21081;-69
2021/07/03 07:30:41;;;;;;;17.32;12.70;;;;;;;22.04;65.17;100104.22;2083392;84;21065;-73
2021/07/03 07:33:43;;;;;;;15.40;12.55;;;;;;;22.12;64.75;100107.88;2063034;84;22512;-70
2021/07/03 07:36:44;;;;;;;17.30;13.05;;;;;;;22.22;65.18;100111.34;2083427;84;21087;-69
2021/07/03 07:39:47;;;;;;;15.78;12.20;;;;;;;22.58;64.54;100112.73;2084793;84;21070;-68
2021/07/03 07:42:51;;;;;;;17.32;13.08;;;;;;;22.73;64.23;100106.23;2082300;84;21047;-75
2021/07/03 07:45:55;;;;;;;14.20;11.83;;;;;;;23.22;63.99;100105.59;2083473;84;21488;-68
2021/07/03 07:48:57;;;;;;;15.23;11.88;;;;;;;23.42;62.87;100103.13;2081571;84;21086;-69
2021/07/03 07:51:59;;;;;;;16.85;12.37;;;;;;;23.87;63.00;100100.70;2018740;86;20983;-68
2021/07/03 07:55:02;;;;;;;13.18;11.78;;;;;;;24.22;61.89;100100.79;2077317;82;21109;-67
2021/07/03 07:58:03;;;;;;;16.37;11.65;;;;;;;24.56;60.89;100101.91;2042383;85;21510;-67
2021/07/03 08:01:05;;;;;;;15.90;11.22;;;;;;;24.65;60.39;100106.31;2042370;85;21638;-69
2021/07/03 08:04:06;;;;;;;13.60;11.90;;;;;;;24.52;59.97;100102.95;2036577;85;21534;-69
2021/07/03 08:07:08;;;;;;;15.32;11.75;;;;;;;24.30;59.48;100114.39;2043177;85;20991;-68
2021/07/03 08:10:14;;;;;;;16.90;11.38;;;;;;;23.97;58.17;100108.13;2037446;85;21019;-73
2021/07/03 08:13:17;;;;;;;14.10;11.55;;;;;;;23.40;59.06;100116.67;2040420;85;21117;-69
2021/07/03 08:16:18;;;;;;;13.38;11.25;;;;;;;23.21;59.15;100112.08;2038539;85;21662;-69
2021/07/03 08:19:23;;;;;;;13.25;10.82;;;;;;;23.18;59.29;100117.45;2040466;85;21185;-68
2021/07/03 08:22:25;;;;;;;16.97;12.43;;;;;;;23.11;59.60;100115.99;2038039;85;21557;-70
2021/07/03 08:25:27;;;;;;;13.15;11.25;;;;;;;23.34;59.48;100111.73;2036221;85;21026;-70
2021/07/03 08:28:28;;;;;;;13.93;11.40;;;;;;;23.66;59.43;100105.60;2039272;85;21023;-69
2021/07/03 08:31:31;;;;;;;18.05;11.83;;;;;;;24.08;59.21;100100.93;2040173;85;21058;-69
2021/07/03 08:34:33;;;;;;;15.05;11.78;;;;;;;24.67;58.60;100098.74;2042705;85;21015;-69
2021/07/03 08:37:35;;;;;;;16.15;11.68;;;;;;;24.93;57.50;100105.97;2036153;85;21102;-68
2021/07/03 08:40:37;;;;;;;16.10;11.03;;;;;;;24.57;56.87;100090.79;2039330;85;21043;-68
2021/07/03 08:43:52;;;;;;;15.00;11.83;;;;;;;24.54;57.67;100087.78;2036907;85;21077;-68
2021/07/03 08:46:55;;;;;;;18.75;10.55;;;;;;;24.58;57.88;100089.73;2039648;85;21010;-68
2021/07/03 08:50:01;;;;;;;13.13;11.30;;;;;;;24.26;56.76;100095.66;2040565;85;21046;-68
2021/07/03 08:53:08;;;;;;;15.30;10.78;;;;;;;24.02;57.50;100097.35;2039023;85;21074;-69
2021/07/03 08:56:09;;;;;;;14.50;10.78;;;;;;;24.15;57.66;100098.27;2060090;83;21065;-69
2021/07/03 08:59:20;;;;;;;13.55;11.45;;;;;;;24.71;57.11;100097.13;2085910;83;21061;-68
2021/07/03 09:02:33;;;;;;;18.82;11.55;;;;;;;24.83;56.37;100093.67;2083791;84;21088;-68
2021/07/03 09:05:38;;;;;;;16.95;11.43;;;;;;;24.37;55.73;100096.03;2084056;84;21588;-67
2021/07/03 09:08:41;;;;;;;16.50;13.15;;;;;;;23.86;56.05;100096.91;2086113;84;21006;-67
2021/07/03 09:11:48;;;;;;;12.13;10.45;;;;;;;23.56;56.72;100101.41;2088196;84;21014;-67
2021/07/03 09:14:49;;;;;;;14.28;12.40;;;;;;;23.72;56.71;100101.91;2084963;84;21100;-67
2021/07/03 09:17:59;;;;;;;13.90;10.55;;;;;;;23.85;56.81;100096.09;2085634;83;21017;-68
2021/07/03 09:24:31;;;;;;;14.60;10.70;;;;;;;23.92;56.43;100089.92;2117397;81;21057;-67
2021/07/03 09:27:33;;;;;;;14.33;10.23;;;;;;;23.96;56.65;100088.86;2120598;82;21052;-68
2021/07/03 09:30:35;;;;;;;12.00;9.53;;;;;;;23.99;56.44;100084.31;2121022;81;21061;-68
2021/07/03 09:33:40;;;;;;;17.27;11.18;;;;;;;24.29;56.53;100081.59;2118648;81;21111;-67
2021/07/03 09:36:42;;;;;;;12.45;10.85;;;;;;;24.44;55.11;100072.78;2123824;82;21041;-68
2021/07/03 09:39:44;;;;;;;13.48;9.33;;;;;;;24.45;55.64;100074.44;2122641;82;21030;-68
2021/07/03 09:42:45;;;;;;;11.28;9.23;;;;;;;24.26;55.70;100081.56;2123922;82;21096;-71
2021/07/03 09:45:51;;;;;;;12.82;8.38;;;;;;;24.37;55.86;100068.91;2122588;81;20991;-70
2021/07/03 09:49:08;;;;;;;13.93;9.83;;;;;;;24.64;55.89;100071.59;2119062;81;21426;-68
2021/07/03 09:52:11;;;;;;;11.45;8.65;;;;;;;24.72;55.29;100067.55;2121278;82;21042;-72
2021/07/03 09:55:13;;;;;;;12.03;8.88;;;;;;;24.62;54.63;100072.94;2123535;82;21003;-69
2021/07/03 09:58:15;;;;;;;11.10;8.63;;;;;;;24.50;54.78;100073.12;2123055;82;21517;-67
2021/07/03 10:01:16;;;;;;;13.68;7.80;;;;;;;24.58;55.12;100072.62;2122577;82;21038;-70
2021/07/03 10:04:18;;;;;;;9.58;8.33;;;;;;;24.88;54.50;100063.05;2122843;82;21019;-67
2021/07/03 10:07:35;;;;;;;9.30;8.28;;;;;;;25.32;54.87;100067.65;2124508;82;20975;-69
2021/07/03 10:10:38;;;;;;;11.50;8.10;;;;;;;25.53;54.16;100068.52;2124841;82;21033;-70
2021/07/03 10:13:40;;;;;;;11.45;7.85;;;;;;;25.57;53.20;100063.39;2120015;82;21014;-72
2021/07/03 10:16:42;;;;;;;8.80;7.33;;;;;;;25.94;53.42;100059.96;2124498;82;21621;-69
2021/07/03 10:19:47;;;;;;;10.20;7.50;;;;;;;26.39;52.85;100054.27;2124120;82;21045;-71
2021/07/03 10:22:55;;;;;;;11.35;7.83;;;;;;;26.63;51.30;100050.18;2122988;82;21078;-69
2021/07/03 10:25:57;;;;;;;12.93;7.08;;;;;;;26.71;50.51;100046.35;2111642;82;21608;-76
2021/07/03 10:28:58;;;;;;;10.53;6.50;;;;;;;26.87;50.79;100046.33;2117330;82;20991;-76
2021/07/03 10:32:00;;;;;;;11.63;7.20;;;;;;;26.93;49.52;100035.69;2120279;82;21022;-70
2021/07/03 10:35:11;;;;;;;8.15;6.97;;;;;;;26.64;48.27;100039.03;2119287;81;20986;-75
2021/07/03 10:38:30;;;;;;;15.65;6.90;;;;;;;26.59;49.65;100039.03;2136077;81;21015;-69
2021/07/03 10:41:38;;;;;;;11.50;6.58;;;;;;;26.64;48.36;100019.98;2094356;82;21604;-71
2021/07/03 10:44:42;;;;;;;8.50;6.78;;;;;;;26.35;49.20;100025.96;2132881;80;21120;-74
2021/07/03 10:47:44;;;;;;;8.08;6.95;;;;;;;25.84;49.10;100021.08;2135220;82;21051;-71
2021/07/03 10:50:47;;;;;;;10.10;6.35;;;;;;;26.05;48.77;100016.48;2087194;83;20971;-78
2021/07/03 10:53:49;;;;;;;8.58;5.35;;;;;;;25.86;48.95;100019.72;2062749;84;21036;-72
2021/07/03 10:57:05;;;;;;;7.67;6.20;;;;;;;25.32;48.09;100019.31;2060268;83;21422;-69
2021/07/03 11:00:06;;;;;;;9.55;6.92;;;;;;;24.94;49.28;100024.00;2047326;84;21597;-73
2021/07/03 11:03:19;;;;;;;7.33;5.75;;;;;;;25.10;49.83;100017.57;2061608;84;21071;-74
2021/07/03 11:06:22;;;;;;;9.08;6.15;;;;;;;25.53;49.69;100013.39;2076437;83;21060;-72
2021/07/03 11:09:33;;;;;;;10.70;6.72;;;;;;;25.85;48.66;100014.58;2075672;84;21635;-74
2021/07/03 11:12:55;;;;;;;12.28;5.95;;;;;;;25.76;49.07;100012.88;2136330;80;21046;-75
2021/07/03 11:15:57;;;;;;;10.80;6.37;;;;;;;25.59;48.67;100013.67;2135811;82;21033;-72
2021/07/03 11:18:59;;;;;;;9.08;5.87;;;;;;;25.36;49.06;100010.35;2138821;81;20997;-75
2021/07/03 11:22:09;;;;;;;8.10;6.75;;;;;;;25.30;48.74;100008.70;2134232;81;21108;-73
2021/07/03 11:25:10;;;;;;;;;;;;;;;25.14;48.35;100011.06;2130767;82;21054;-76
2021/07/03 11:28:19;;;;;;;7.15;5.25;;;;;;;25.49;49.11;100001.70;2135958;81;20570;-72
2021/07/03 11:31:22;;;;;;;7.30;5.35;;;;;;;25.96;48.40;100003.98;2128253;82;22214;-75
2021/07/03 11:34:28;;;;;;;7.70;5.35;;;;;;;26.26;47.54;100005.05;2134615;82;21369;-74
2021/07/03 11:37:34;;;;;;;8.05;5.70;;;;;;;26.05;47.13;99998.81;2134318;82;21109;-83
2021/07/03 11:40:36;;;;;;;7.95;5.78;;;;;;;25.68;47.05;99999.85;2130494;82;21613;-77
2021/07/03 11:43:37;;;;;;;14.38;5.85;;;;;;;25.60;47.68;99997.66;2125761;82;21573;-75
2021/07/03 11:46:39;;;;;;;9.55;5.75;;;;;;;25.97;47.37;99988.48;2122599;81;21050;-75
2021/07/03 11:49:44;;;;;;;8.98;5.47;;;;;;;26.36;47.07;99982.73;2125798;81;21013;-74
2021/07/03 11:52:52;;;;;;;7.87;4.90;;;;;;;26.28;46.41;99976.49;2131539;82;21085;-74
2021/07/03 11:55:56;;;;;;;5.62;4.83;;;;;;;26.47;46.50;99975.89;2127984;81;20966;-75
2021/07/03 11:58:58;;;;;;;;;;;;;;;26.71;46.04;99973.42;2131859;82;21104;-74
2021/07/03 12:02:00;;;;;;;8.05;5.42;;;;;;;26.85;45.89;99966.84;2131243;82;20475;-74
2021/07/03 12:05:05;;;;;;;9.18;4.83;;;;;;;26.97;45.06;99962.70;2127277;81;21039;-75
2021/07/03 12:08:14;;;;;;;9.93;4.20;;;;;;;26.97;44.39;99970.05;2128458;82;21007;-74
2021/07/03 12:11:21;;;;;;;5.65;4.60;;;;;;;26.82;44.16;99964.94;2130467;82;21100;-74
2021/07/03 12:14:27;;;;;;;6.90;5.10;;;;;;;26.96;43.33;99963.80;2133585;82;21052;-75
2021/07/03 12:17:28;;;;;;;5.97;4.65;;;;;;;27.00;44.69;99950.44;2133562;82;21063;-76
2021/07/03 12:20:30;;;;;;;4.83;4.35;;;;;;;27.14;44.19;99952.81;2117013;81;21037;-76
2021/07/03 12:23:32;;;;;;;8.23;4.97;;;;;;;27.10;43.47;99949.03;2131841;82;21603;-73
2021/07/03 12:26:43;;;;;;;7.10;4.90;;;;;;;26.77;43.14;99947.27;2130177;81;21599;-74
2021/07/03 12:29:44;;;;;;;;;;;;;;;26.42;42.98;99941.38;2127445;82;21041;-73
2021/07/03 12:32:46;;;;;;;17.02;5.25;;;;;;;26.12;43.02;99941.70;2131311;82;20516;-74
2021/07/03 12:35:52;;;;;;;7.62;4.47;;;;;;;26.14;43.35;99943.61;2128355;82;20982;-73
2021/07/03 12:39:13;;;;;;;5.28;4.75;;;;;;;26.33;43.54;99938.41;2129192;81;21058;-74
2021/07/03 12:42:17;;;;;;;11.78;6.67;;;;;;;26.55;43.47;99939.48;2130660;82;20991;-74
2021/07/03 12:45:21;;;;;;;6.62;5.92;;;;;;;26.73;44.63;99945.40;2127961;82;21002;-74
2021/07/03 12:48:22;;;;;;;18.55;9.08;;;;;;;26.56;44.29;99939.73;2128034;82;21500;-73
2021/07/03 12:51:32;;;;;;;11.35;6.40;;;;;;;26.35;44.44;99939.48;2129192;81;21089;-73
2021/07/03 12:54:34;;;;;;;12.60;6.70;;;;;;;25.90;44.62;99950.69;2128824;82;21496;-73
2021/07/03 12:57:49;;;;;;;9.10;6.47;;;;;;;25.29;44.77;99957.41;2130202;81;21046;-74
2021/07/03 13:00:49;;;;;;;6.47;5.17;;;;;;;24.78;45.73;99960.72;2133502;82;21462;-73
2021/07/03 13:03:50;;;;;;;7.12;5.65;;;;;;;24.23;46.47;99962.80;2129549;81;21647;-76
2021/07/03 13:06:52;;;;;;;12.60;6.85;;;;;;;23.76;47.39;99959.99;2136706;82;21077;-73
2021/07/03 13:09:53;;;;;;;12.68;5.85;;;;;;;23.38;47.67;99967.20;2127387;81;21090;-76
2021/07/03 13:13:02;;;;;;;9.43;6.10;;;;;;;23.12;48.50;99971.52;2131621;81;21561;-74
2021/07/03 13:16:04;;;;;;;11.20;6.28;;;;;;;22.94;49.18;99978.83;2127391;82;21491;-75
2021/07/03 13:19:06;;;;;;;7.90;5.92;;;;;;;22.67;49.67;99978.77;2133039;82;21010;-74
2021/07/03 13:22:07;;;;;;;9.63;6.45;;;;;;;22.42;50.43;99979.23;2132911;82;21042;-73
2021/07/03 13:25:10;;;;;;;12.75;6.47;;;;;;;22.27;50.95;99967.66;2122888;82;20963;-73
2021/07/03 13:28:12;;;;;;;15.35;6.87;;;;;;;22.11;51.62;99971.16;2121126;82;21057;-73
2021/07/03 13:31:15;;;;;;;7.53;6.28;;;;;;;21.97;51.88;99970.66;2120265;81;21022;-72
2021/07/03 13:34:17;;;;;;;10.40;6.40;;;;;;;21.92;52.22;99971.39;2127291;82;20974;-73
2021/07/03 13:37:19;;;;;;;10.70;6.80;;;;;;;21.85;52.50;99965.85;2122959;81;21002;-72
2021/07/03 13:40:20;;;;;;;11.40;6.97;;;;;;;21.82;52.75;99965.84;2124202;82;20970;-72
2021/07/03 13:43:22;;;;;;;10.43;7.30;;;;;;;21.85;53.18;99958.59;2122837;81;21036;-74
2021/07/03 13:46:24;;;;;;;9.23;7.30;;;;;;;21.79;53.39;99956.84;2124617;81;21541;-73
2021/07/03 13:49:26;;;;;;;9.90;7.30;;;;;;;21.80;53.48;99954.99;2123105;82;20978;-72
2021/07/03 13:52:28;;;;;;;11.18;6.87;;;;;;;21.88;53.76;99962.16;2121606;81;21009;-72
2021/07/03 13:55:32;;;;;;;9.95;7.30;;;;;;;21.90;53.91;99958.66;2124103;82;21552;-73
2021/07/03 13:58:35;;;;;;;8.23;7.05;;;;;;;22.00;54.09;99957.20;2121340;81;20983;-72
2021/07/03 14:01:37;;;;;;;10.28;6.83;;;;;;;22.06;53.91;99954.86;2126925;81;21061;-72
2021/07/03 14:04:39;;;;;;;7.53;6.70;;;;;;;22.17;53.94;99955.31;2119523;81;21060;-72